Time;durP1;ratioP1;P1;durP2;ratioP2;P2;SDS_P1;SDS_P2;PMS_P1;PMS_P2;Temp;Humidity;BMP_temperature;BMP_pressure;BME280_temperature;BME280_humidity;BME280_pressure;Samples;Min_cycle;Max_cycle;Signal;HPM_P1;HPM_P2
2022/08/14 00:00:53;;;;;;;25.48;21.57;;;;;;;;;;1680618;84;21028;-72
2022/08/14 00:03:22;;;;;;;25.85;21.12;;;;;;;;;;1679293;83;21158;-71
2022/08/14 00:05:48;;;;;;;25.82;20.90;;;;;;;;;;1673055;84;21493;-73
2022/08/14 00:08:15;;;;;;;25.43;20.62;;;;;;;;;;1676256;83;21468;-72
2022/08/14 00:10:42;;;;;;;25.97;21.40;;;;;;;;;;1675652;84;20942;-72
2022/08/14 00:13:10;;;;;;;26.27;20.88;;;;;;;;;;1682048;83;20842;-73
2022/08/14 00:15:39;;;;;;;23.18;20.77;;;;;;;;;;1672065;84;21120;-71
2022/08/14 00:18:06;;;;;;;24.75;20.40;;;;;;;;;;1671300;84;20994;-73
2022/08/14 00:20:34;;;;;;;25.20;21.15;;;;;;;;;;1677086;84;20935;-72
2022/08/14 00:23:01;;;;;;;28.62;20.92;;;;;;;;;;1678712;84;21571;-72
2022/08/14 00:25:27;;;;;;;24.05;20.82;;;;;;;;;;1669657;83;20855;-73
2022/08/14 00:27:54;;;;;;;21.97;19.67;;;;;;;;;;1679776;83;21164;-72
2022/08/14 00:30:21;;;;;;;24.67;21.65;;;;;;;;;;1672142;84;20922;-71
2022/08/14 00:32:47;;;;;;;27.93;21.25;;;;;;;;;;1685445;83;20943;-70
2022/08/14 00:35:14;;;;;;;24.92;20.95;;;;;;;;;;1682256;83;20895;-73
2022/08/14 00:37:42;;;;;;;28.60;21.10;;;;;;;;;;1666587;84;20919;-71
2022/08/14 00:40:10;;;;;;;21.90;19.57;;;;;;;;;;1666413;84;21128;-73
2022/08/14 00:42:37;;;;;;;23.92;21.35;;;;;;;;;;1666386;84;21552;-73
2022/08/14 00:45:06;;;;;;;32.78;21.30;;;;;;;;;;1666541;84;20986;-71
2022/08/14 00:47:34;;;;;;;22.98;20.68;;;;;;;;;;1666492;84;21501;-71
2022/08/14 00:50:03;;;;;;;24.27;21.75;;;;;;;;;;1678029;84;20962;-71
2022/08/14 00:52:30;;;;;;;23.38;20.97;;;;;;;;;;1692014;84;21448;-71
2022/08/14 00:54:57;;;;;;;25.70;21.62;;;;;;;;;;1666408;84;21051;-72
2022/08/14 00:57:26;;;;;;;27.65;20.62;;;;;;;;;;1676613;84;20934;-72
2022/08/14 00:59:53;;;;;;;29.95;20.77;;;;;;;;;;1689411;84;20902;-71
2022/08/14 01:02:23;;;;;;;28.10;21.70;;;;;;;;;;1679828;84;20855;-72
2022/08/14 01:04:48;;;;;;;25.62;20.45;;;;;;;;;;1689677;84;21178;-71
2022/08/14 01:07:21;;;;;;;27.42;21.45;;;;;;;;;;1685014;84;21586;-71
2022/08/14 01:09:51;;;;;;;27.48;20.97;;;;;;;;;;1686282;83;20921;-71
2022/08/14 01:12:19;;;;;;;23.22;19.95;;;;;;;;;;1666094;84;20919;-72
2022/08/14 01:14:45;;;;;;;22.07;19.67;;;;;;;;;;1671858;84;21057;-73
2022/08/14 01:17:12;;;;;;;24.23;21.00;;;;;;;;;;1670975;84;21159;-71
2022/08/14 01:22:24;;;;;;;27.48;21.17;;;;;;;;;;1689119;84;21037;-73
2022/08/14 01:24:51;;;;;;;26.20;21.25;;;;;;;;;;1669611;84;20895;-72
2022/08/14 01:27:19;;;;;;;24.02;21.35;;;;;;;;;;1682784;84;21014;-71
2022/08/14 01:29:49;;;;;;;26.48;20.20;;;;;;;;;;1685454;84;21194;-71
2022/08/14 01:32:17;;;;;;;24.57;21.10;;;;;;;;;;1686472;84;20953;-71
2022/08/14 01:34:50;;;;;;;29.00;21.10;;;;;;;;;;1681390;84;21564;-71
2022/08/14 01:37:17;;;;;;;23.15;20.70;;;;;;;;;;1686898;83;20914;-71
2022/08/14 01:39:44;;;;;;;33.02;22.05;;;;;;;;;;1673772;84;20879;-72
2022/08/14 01:42:11;;;;;;;24.57;20.48;;;;;;;;;;1686013;83;21797;-71
2022/08/14 01:44:38;;;;;;;27.20;20.92;;;;;;;;;;1688202;84;20897;-72
2022/08/14 01:47:12;;;;;;;25.90;20.75;;;;;;;;;;1684623;84;20985;-71
2022/08/14 01:49:35;;;;;;;23.77;20.75;;;;;;;;;;1672057;84;21067;-72
2022/08/14 01:52:02;;;;;;;22.35;19.98;;;;;;;;;;1687676;83;21570;-73
2022/08/14 01:54:29;;;;;;;23.60;21.10;;;;;;;;;;1686745;84;21268;-72
2022/08/14 01:56:56;;;;;;;27.67;21.93;;;;;;;;;;1669477;84;21001;-73
2022/08/14 01:59:27;;;;;;;32.25;21.42;;;;;;;;;;1686417;84;20981;-71
2022/08/14 02:01:55;;;;;;;23.52;21.02;;;;;;;;;;1670634;84;20868;-72
2022/08/14 02:04:23;;;;;;;23.57;20.70;;;;;;;;;;1691703;83;20966;-72
2022/08/14 02:06:50;;;;;;;23.92;18.87;;;;;;;;;;1667778;84;21413;-73
2022/08/14 02:09:18;;;;;;;24.02;20.15;;;;;;;;;;1684294;84;20977;-73
2022/08/14 02:11:45;;;;;;;24.72;20.92;;;;;;;;;;1689448;84;21029;-72
2022/08/14 02:14:12;;;;;;;26.27;21.45;;;;;;;;;;1666275;84;20907;-73
2022/08/14 02:16:44;;;;;;;25.10;21.55;;;;;;;;;;1676489;84;20982;-73
2022/08/14 02:19:14;;;;;;;28.80;20.77;;;;;;;;;;1628385;86;21211;-72
2022/08/14 02:21:42;;;;;;;20.55;18.32;;;;;;;;;;1681178;84;20959;-72
2022/08/14 02:24:08;;;;;;;23.95;21.07;;;;;;;;;;1663875;84;20911;-72
2022/08/14 02:26:38;;;;;;;22.65;19.95;;;;;;;;;;1674804;84;21003;-73
2022/08/14 02:29:08;;;;;;;26.60;20.40;;;;;;;;;;1663819;84;21429;-73
2022/08/14 02:31:36;;;;;;;28.02;20.97;;;;;;;;;;1677529;84;21172;-71
2022/08/14 02:34:07;;;;;;;22.25;19.77;;;;;;;;;;1688615;83;20860;-73
2022/08/14 02:36:33;;;;;;;28.87;20.88;;;;;;;;;;1674133;84;21112;-71
2022/08/14 02:39:00;;;;;;;23.12;19.37;;;;;;;;;;1630970;87;21048;-74
2022/08/14 02:41:26;;;;;;;26.35;20.65;;;;;;;;;;1686174;84;21518;-72
2022/08/14 02:43:53;;;;;;;25.92;19.85;;;;;;;;;;1683848;84;21531;-73
2022/08/14 02:46:20;;;;;;;22.90;20.10;;;;;;;;;;1673326;84;21119;-71
2022/08/14 02:48:47;;;;;;;24.95;19.67;;;;;;;;;;1675756;84;21543;-71
2022/08/14 02:51:14;;;;;;;25.75;20.23;;;;;;;;;;1675246;84;21042;-73
2022/08/14 02:53:43;;;;;;;23.90;19.57;;;;;;;;;;1667935;84;21604;-72
2022/08/14 02:56:13;;;;;;;26.75;20.60;;;;;;;;;;1671507;84;21236;-72
2022/08/14 02:58:39;;;;;;;26.80;19.62;;;;;;;;;;1668901;84;20859;-72
2022/08/14 03:01:07;;;;;;;23.92;20.08;;;;;;;;;;1683828;84;20989;-72
2022/08/14 03:03:35;;;;;;;23.50;19.32;;;;;;;;;;1678100;84;21047;-71
2022/08/14 03:06:06;;;;;;;27.73;19.95;;;;;;;;;;1684869;84;20890;-71
2022/08/14 03:08:32;;;;;;;21.70;19.35;;;;;;;;;;1678538;84;21809;-71
2022/08/14 03:11:00;;;;;;;24.60;18.92;;;;;;;;;;1670878;84;20978;-73
2022/08/14 03:13:27;;;;;;;22.07;18.90;;;;;;;;;;1684504;84;21037;-72
2022/08/14 03:15:53;;;;;;;22.07;18.95;;;;;;;;;;1677866;84;21050;-73
2022/08/14 03:18:24;;;;;;;23.20;19.17;;;;;;;;;;1681189;84;21049;-73
2022/08/14 03:20:50;;;;;;;23.45;19.37;;;;;;;;;;1683857;84;21162;-72
2022/08/14 03:23:18;;;;;;;23.32;19.23;;;;;;;;;;1670461;84;20935;-71
2022/08/14 03:25:45;;;;;;;20.85;17.98;;;;;;;;;;1687134;83;20954;-72
2022/08/14 03:28:12;;;;;;;23.52;18.73;;;;;;;;;;1688432;84;21416;-73
2022/08/14 03:30:39;;;;;;;25.35;18.65;;;;;;;;;;1677039;83;20889;-72
2022/08/14 03:33:07;;;;;;;20.97;18.75;;;;;;;;;;1684631;84;21116;-72
2022/08/14 03:35:34;;;;;;;22.37;18.65;;;;;;;;;;1681614;84;20963;-73
2022/08/14 03:38:07;;;;;;;24.27;17.80;;;;;;;;;;1670145;84;20891;-74
2022/08/14 03:40:37;;;;;;;20.48;17.65;;;;;;;;;;1672184;84;21061;-72
2022/08/14 03:43:04;;;;;;;;;;;;;;;;;;1680334;84;20951;-73
2022/08/14 03:45:34;;;;;;;21.52;17.77;;;;;;;;;;1675765;84;21153;-73
2022/08/14 03:48:18;;;;;;;21.05;18.85;;;;;;;;;;1669533;84;21465;-74
2022/08/14 03:50:46;;;;;;;27.05;18.02;;;;;;;;;;1673273;84;20974;-70
2022/08/14 03:53:13;;;;;;;19.00;16.93;;;;;;;;;;1683259;84;20890;-70
2022/08/14 03:55:41;;;;;;;27.40;18.87;;;;;;;;;;1680396;84;20938;-71
2022/08/14 03:58:08;;;;;;;22.48;18.90;;;;;;;;;;1676645;84;21927;-72
2022/08/14 04:00:36;;;;;;;25.37;18.20;;;;;;;;;;1686144;84;21082;-71
2022/08/14 04:03:04;;;;;;;22.77;19.17;;;;;;;;;;1686321;84;21244;-71
2022/08/14 04:05:32;;;;;;;21.45;18.35;;;;;;;;;;1671950;83;21073;-74
2022/08/14 04:07:59;;;;;;;22.27;18.05;;;;;;;;;;1681392;84;21010;-73
2022/08/14 04:10:26;;;;;;;25.25;19.35;;;;;;;;;;1680646;84;21616;-70
2022/08/14 04:12:52;;;;;;;29.67;18.50;;;;;;;;;;1676185;83;20927;-72
2022/08/14 04:15:20;;;;;;;23.73;19.32;;;;;;;;;;1675855;84;21521;-72
2022/08/14 04:17:46;;;;;;;24.45;18.57;;;;;;;;;;1688833;83;20974;-72
2022/08/14 04:20:13;;;;;;;29.77;18.82;;;;;;;;;;1682407;84;21014;-71
2022/08/14 04:22:42;;;;;;;19.73;17.48;;;;;;;;;;1674439;84;21268;-73
2022/08/14 04:25:09;;;;;;;20.70;18.25;;;;;;;;;;1680490;84;20922;-73
2022/08/14 04:27:35;;;;;;;19.37;16.50;;;;;;;;;;1672321;84;21001;-72
2022/08/14 04:30:05;;;;;;;25.95;17.62;;;;;;;;;;1664697;84;20999;-71
2022/08/14 04:32:32;;;;;;;23.65;18.60;;;;;;;;;;1683239;84;21070;-73
2022/08/14 04:35:00;;;;;;;22.70;18.55;;;;;;;;;;1672199;84;21197;-73
2022/08/14 04:45:42;;;;;;;21.87;17.27;;;;;;;;;;1689308;84;20914;-74
2022/08/14 04:48:12;;;;;;;19.95;16.48;;;;;;;;;;1680961;83;21272;-72
2022/08/14 04:50:45;;;;;;;23.22;17.50;;;;;;;;;;1671386;84;21094;-74
2022/08/14 04:53:14;;;;;;;20.68;18.05;;;;;;;;;;1682558;84;20945;-72
2022/08/14 04:55:41;;;;;;;;;;;;;;;;;;1678208;84;20910;-74
2022/08/14 04:58:08;;;;;;;20.30;15.85;;;;;;;;;;1682173;84;20458;-73
2022/08/14 05:00:38;;;;;;;21.02;15.53;;;;;;;;;;1666368;84;21568;-73
2022/08/14 05:03:06;;;;;;;18.27;16.30;;;;;;;;;;1666444;84;21950;-74
2022/08/14 05:05:33;;;;;;;23.12;17.67;;;;;;;;;;1675416;84;21152;-73
2022/08/14 05:08:08;;;;;;;19.80;16.05;;;;;;;;;;1677693;84;21061;-73
2022/08/14 05:10:39;;;;;;;24.40;18.07;;;;;;;;;;1676531;84;21521;-73
2022/08/14 05:13:07;;;;;;;21.68;16.97;;;;;;;;;;1669956;84;21284;-74
2022/08/14 05:15:36;;;;;;;20.27;16.70;;;;;;;;;;1690288;83;21526;-74
2022/08/14 05:18:08;;;;;;;25.60;17.25;;;;;;;;;;1682107;84;21064;-74
2022/08/14 05:20:34;;;;;;;25.30;17.48;;;;;;;;;;1679131;84;20907;-73
2022/08/14 05:23:02;;;;;;;21.00;16.48;;;;;;;;;;1666571;84;20896;-73
2022/08/14 05:25:29;;;;;;;21.65;16.77;;;;;;;;;;1674686;84;21841;-74
2022/08/14 05:27:59;;;;;;;20.72;16.17;;;;;;;;;;1673969;84;20883;-71
2022/08/14 05:30:24;;;;;;;19.82;15.63;;;;;;;;;;1669605;84;20871;-73
2022/08/14 05:32:50;;;;;;;19.20;15.70;;;;;;;;;;1684649;84;20862;-74
2022/08/14 05:35:18;;;;;;;18.92;14.85;;;;;;;;;;1678280;84;20919;-72
2022/08/14 05:37:44;;;;;;;16.37;14.65;;;;;;;;;;1687313;83;21169;-72
2022/08/14 05:40:11;;;;;;;18.67;14.38;;;;;;;;;;1677837;82;21442;-74
2022/08/14 05:42:37;;;;;;;22.13;14.60;;;;;;;;;;1669098;84;20980;-74
2022/08/14 05:45:07;;;;;;;15.72;13.40;;;;;;;;;;1689714;84;20926;-75
2022/08/14 05:47:39;;;;;;;16.82;13.13;;;;;;;;;;1664725;84;21079;-74
2022/08/14 05:50:12;;;;;;;18.77;13.75;;;;;;;;;;1685379;84;21408;-72
2022/08/14 05:52:39;;;;;;;18.15;13.20;;;;;;;;;;1666398;84;20979;-74
2022/08/14 05:55:07;;;;;;;14.85;13.20;;;;;;;;;;1666276;84;21573;-75
2022/08/14 05:57:56;;;;;;;19.00;13.62;;;;;;;;;;1676046;84;21005;-73
2022/08/14 06:00:28;;;;;;;17.70;11.88;;;;;;;;;;1685996;84;21440;-73
2022/08/14 06:02:57;;;;;;;14.90;12.80;;;;;;;;;;1666388;84;21201;-74
2022/08/14 06:05:23;;;;;;;19.77;13.35;;;;;;;;;;1675076;83;20880;-72
2022/08/14 06:07:49;;;;;;;14.18;11.53;;;;;;;;;;1686183;83;20939;-72
2022/08/14 06:10:16;;;;;;;23.80;10.95;;;;;;;;;;1670276;84;20896;-72
2022/08/14 06:12:43;;;;;;;15.93;10.47;;;;;;;;;;1675239;84;20934;-74
2022/08/14 06:15:10;;;;;;;15.43;11.45;;;;;;;;;;1690076;84;21163;-74
2022/08/14 06:17:48;;;;;;;15.53;10.45;;;;;;;;;;1685614;84;20989;-74
2022/08/14 06:20:14;;;;;;;;;;;;;;;;;;1689309;83;21631;-74
2022/08/14 06:22:41;;;;;;;15.65;10.85;;;;;;;;;;1669931;84;20427;-72
2022/08/14 06:25:10;;;;;;;16.00;11.55;;;;;;;;;;1675559;84;20919;-74
2022/08/14 06:27:38;;;;;;;13.80;11.22;;;;;;;;;;1685139;82;21134;-74
2022/08/14 06:30:11;;;;;;;14.10;11.28;;;;;;;;;;1720377;82;20873;-73
2022/08/14 06:32:38;;;;;;;17.67;11.22;;;;;;;;;;1655041;84;21492;-74
2022/08/14 06:35:05;;;;;;;12.07;10.55;;;;;;;;;;1643567;85;20982;-72
2022/08/14 06:37:41;;;;;;;14.55;10.53;;;;;;;;;;1653746;85;20942;-74
2022/08/14 06:40:09;;;;;;;14.55;10.40;;;;;;;;;;1646656;85;21629;-76
2022/08/14 06:42:36;;;;;;;11.88;10.28;;;;;;;;;;1655901;86;21064;-74
2022/08/14 06:45:03;;;;;;;10.65;9.63;;;;;;;;;;1693581;82;21535;-72
2022/08/14 06:47:31;;;;;;;10.98;9.93;;;;;;;;;;1726437;82;21100;-74
2022/08/14 06:49:58;;;;;;;14.38;10.32;;;;;;;;;;1709887;82;21485;-74
2022/08/14 06:52:24;;;;;;;16.93;10.60;;;;;;;;;;1726904;82;21479;-74
2022/08/14 06:54:50;;;;;;;13.48;9.68;;;;;;;;;;1731851;81;21441;-73
2022/08/14 06:57:17;;;;;;;11.40;9.38;;;;;;;;;;1706319;82;20995;-73
2022/08/14 06:59:44;;;;;;;14.60;9.93;;;;;;;;;;1673921;84;20954;-70
2022/08/14 07:07:40;;;;;;;9.55;8.60;;;;;;;;;;1666444;84;21472;-75
2022/08/14 07:10:09;;;;;;;13.33;9.63;;;;;;;;;;1673472;84;21016;-72
2022/08/14 07:12:36;;;;;;;11.08;9.30;;;;;;;;;;1682961;84;21538;-73
2022/08/14 07:15:04;;;;;;;12.47;9.50;;;;;;;;;;1680890;84;21018;-74
2022/08/14 07:17:31;;;;;;;12.70;10.03;;;;;;;;;;1671800;84;21560;-74
2022/08/14 07:19:58;;;;;;;13.38;10.68;;;;;;;;;;1689603;84;20909;-75
2022/08/14 07:22:24;;;;;;;11.75;9.55;;;;;;;;;;1686983;83;20910;-73
2022/08/14 07:24:51;;;;;;;12.43;8.98;;;;;;;;;;1678411;84;20866;-72
2022/08/14 07:27:17;;;;;;;13.32;9.23;;;;;;;;;;1692268;84;21045;-77
2022/08/14 07:29:43;;;;;;;10.55;9.15;;;;;;;;;;1676374;84;21977;-73
2022/08/14 07:32:10;;;;;;;12.35;8.05;;;;;;;;;;1677106;83;20879;-73
2022/08/14 07:34:36;;;;;;;9.63;8.55;;;;;;;;;;1690199;84;20938;-73
2022/08/14 07:37:04;;;;;;;10.43;8.90;;;;;;;;;;1672418;84;20986;-74
2022/08/14 07:39:32;;;;;;;11.22;8.40;;;;;;;;;;1671106;84;20860;-76
2022/08/14 07:41:58;;;;;;;13.18;8.95;;;;;;;;;;1679171;83;21102;-73
2022/08/14 07:44:24;;;;;;;11.35;8.98;;;;;;;;;;1674476;84;21160;-74
2022/08/14 07:46:51;;;;;;;14.78;9.43;;;;;;;;;;1666555;84;20990;-71
2022/08/14 07:49:18;;;;;;;9.25;8.35;;;;;;;;;;1666493;84;21050;-69
2022/08/14 07:51:45;;;;;;;11.57;8.38;;;;;;;;;;1680269;83;21656;-72
2022/08/14 07:54:12;;;;;;;14.05;8.55;;;;;;;;;;1670587;84;21075;-72
2022/08/14 07:56:40;;;;;;;10.35;8.88;;;;;;;;;;1679146;83;20939;-70
2022/08/14 07:59:07;;;;;;;15.83;9.43;;;;;;;;;;1677310;84;21010;-71
2022/08/14 08:01:34;;;;;;;14.60;8.83;;;;;;;;;;1673298;84;20943;-72
2022/08/14 08:04:02;;;;;;;11.55;8.63;;;;;;;;;;1669194;84;20883;-72
2022/08/14 08:06:29;;;;;;;11.15;8.38;;;;;;;;;;1692769;84;21108;-73
2022/08/14 08:08:58;;;;;;;12.77;9.03;;;;;;;;;;1689357;83;21061;-71
2022/08/14 08:11:26;;;;;;;11.00;8.70;;;;;;;;;;1686650;83;21444;-71
2022/08/14 08:13:53;;;;;;;13.48;8.85;;;;;;;;;;1666529;84;21014;-72
2022/08/14 08:16:22;;;;;;;10.18;8.50;;;;;;;;;;1687809;84;21009;-72
2022/08/14 08:18:49;;;;;;;12.23;8.20;;;;;;;;;;1672808;84;21047;-70
2022/08/14 08:21:16;;;;;;;11.53;8.83;;;;;;;;;;1689293;84;20917;-74
2022/08/14 08:23:42;;;;;;;15.90;7.90;;;;;;;;;;1674108;84;20903;-72
2022/08/14 08:26:09;;;;;;;14.50;8.85;;;;;;;;;;1694119;83;21064;-75
2022/08/14 08:28:36;;;;;;;12.15;8.75;;;;;;;;;;1677015;84;21006;-70
2022/08/14 08:31:04;;;;;;;13.20;10.40;;;;;;;;;;1663933;84;21495;-73
2022/08/14 08:33:34;;;;;;;10.30;9.20;;;;;;;;;;1682530;83;20850;-72
2022/08/14 08:36:04;;;;;;;14.15;9.45;;;;;;;;;;1681285;83;20915;-72
2022/08/14 08:38:31;;;;;;;13.88;10.53;;;;;;;;;;1688227;84;20899;-71
2022/08/14 08:40:59;;;;;;;10.72;9.63;;;;;;;;;;1682332;84;20921;-72
2022/08/14 08:43:29;;;;;;;;;;;;;;;;;;1672061;84;21133;-73
2022/08/14 08:45:59;;;;;;;10.82;9.73;;;;;;;;;;1669947;84;20191;-73
2022/08/14 08:48:28;;;;;;;15.13;9.65;;;;;;;;;;1666576;84;20875;-73
2022/08/14 08:50:57;;;;;;;14.35;9.23;;;;;;;;;;1674744;84;20947;-70
2022/08/14 08:53:30;;;;;;;12.07;10.53;;;;;;;;;;1682013;83;20946;-74
2022/08/14 08:55:57;;;;;;;14.78;10.95;;;;;;;;;;1676728;83;21299;-72
2022/08/14 08:58:24;;;;;;;15.37;10.67;;;;;;;;;;1677166;84;20937;-73
2022/08/14 09:00:53;;;;;;;14.00;10.80;;;;;;;;;;1675007;84;20997;-72
2022/08/14 09:03:23;;;;;;;18.65;11.48;;;;;;;;;;1659242;84;20943;-74
2022/08/14 09:05:55;;;;;;;11.48;10.38;;;;;;;;;;1681892;84;21516;-72
2022/08/14 09:08:27;;;;;;;15.45;10.95;;;;;;;;;;1678656;83;21480;-72
2022/08/14 09:10:54;;;;;;;11.68;10.43;;;;;;;;;;1686072;84;20935;-72
2022/08/14 09:13:24;;;;;;;12.20;10.93;;;;;;;;;;1673272;84;20964;-72
2022/08/14 09:15:51;;;;;;;12.55;10.88;;;;;;;;;;1687226;83;22060;-74
2022/08/14 09:18:20;;;;;;;17.27;10.68;;;;;;;;;;1680019;84;21008;-72
2022/08/14 09:20:50;;;;;;;11.83;10.55;;;;;;;;;;1692078;84;21141;-71
2022/08/14 09:23:17;;;;;;;15.98;10.53;;;;;;;;;;1698345;83;20934;-76
2022/08/14 09:25:46;;;;;;;11.78;10.08;;;;;;;;;;1695739;84;20884;-72
2022/08/14 09:28:14;;;;;;;12.23;9.95;;;;;;;;;;1684037;85;20949;-73
2022/08/14 09:30:44;;;;;;;;;;;;;;;;;;1687550;84;20877;-72
2022/08/14 09:33:39;;;;;;;15.23;9.98;;;;;;;;;;1676317;84;21783;-72
2022/08/14 09:36:25;;;;;;;11.48;10.25;;;;;;;;;;1681816;85;20980;-68
2022/08/14 09:39:14;;;;;;;14.47;10.18;;;;;;;;;;1685129;85;21428;-73
2022/08/14 09:41:53;;;;;;;11.93;10.60;;;;;;;;;;1685696;85;21096;-71
2022/08/14 09:44:48;;;;;;;14.25;9.93;;;;;;;;;;1685016;85;21490;-70
2022/08/14 09:47:15;;;;;;;11.22;9.90;;;;;;;;;;1694602;84;21266;-75
2022/08/14 09:49:42;;;;;;;;;;;;;;;;;;1695084;84;20921;-71
2022/08/14 09:52:14;;;;;;;13.15;10.08;;;;;;;;;;1685378;85;20086;-71
2022/08/14 09:54:45;;;;;;;11.93;10.53;;;;;;;;;;1683473;85;21498;-72
2022/08/14 09:57:33;;;;;;;11.35;9.93;;;;;;;;;;1685550;85;20853;-71
2022/08/14 09:59:56;;;;;;;11.85;10.68;;;;;;;;;;1681041;85;21173;-74
2022/08/14 10:02:30;;;;;;;14.40;10.38;;;;;;;;;;1698416;84;20897;-73
2022/08/14 10:05:06;;;;;;;12.95;10.30;;;;;;;;;;1685922;85;20969;-71
2022/08/14 10:07:38;;;;;;;14.20;9.58;;;;;;;;;;1685103;84;20940;-72
2022/08/14 10:10:06;;;;;;;11.50;10.40;;;;;;;;;;1675885;85;20854;-73
2022/08/14 10:12:44;;;;;;;14.68;9.98;;;;;;;;;;1683874;83;21132;-72
2022/08/14 10:15:19;;;;;;;12.63;10.18;;;;;;;;;;1685812;85;21455;-72
2022/08/14 10:17:47;;;;;;;11.60;9.45;;;;;;;;;;1685131;85;21055;-73
2022/08/14 10:20:19;;;;;;;11.60;10.40;;;;;;;;;;1692503;84;21447;-72
2022/08/14 10:22:44;;;;;;;12.13;9.70;;;;;;;;;;1676910;84;20840;-74
2022/08/14 10:25:16;;;;;;;13.80;9.80;;;;;;;;;;1683298;84;21259;-74
2022/08/14 10:27:45;;;;;;;13.15;9.65;;;;;;;;;;1677960;84;20902;-70
2022/08/14 10:30:12;;;;;;;10.40;9.00;;;;;;;;;;1667871;84;21041;-71
2022/08/14 10:32:47;;;;;;;11.08;9.70;;;;;;;;;;1674629;84;20997;-72
2022/08/14 10:35:14;;;;;;;10.60;9.43;;;;;;;;;;1690107;84;20981;-72
2022/08/14 10:37:42;;;;;;;;;;;;;;;;;;1684387;84;21146;-71
2022/08/14 10:40:10;;;;;;;13.08;8.78;;;;;;;;;;1690254;84;20078;-73
2022/08/14 10:42:39;;;;;;;15.40;8.93;;;;;;;;;;1670821;84;20991;-71
2022/08/14 10:45:27;;;;;;;11.38;8.98;;;;;;;;;;1679566;84;21010;-71
2022/08/14 10:47:53;;;;;;;11.40;8.95;;;;;;;;;;1693261;83;20890;-72
2022/08/14 10:50:34;;;;;;;11.80;8.18;;;;;;;;;;1694158;84;21832;-68
2022/08/14 10:53:04;;;;;;;9.50;8.50;;;;;;;;;;1679082;84;20939;-71
2022/08/14 10:55:40;;;;;;;13.68;9.20;;;;;;;;;;1666459;84;20954;-71
2022/08/14 10:58:11;;;;;;;9.75;8.45;;;;;;;;;;1680686;84;20900;-71
2022/08/14 11:00:39;;;;;;;15.63;10.00;;;;;;;;;;1687529;84;20974;-73
2022/08/14 11:03:08;;;;;;;11.73;9.10;;;;;;;;;;1692364;84;21441;-73
2022/08/14 11:05:47;;;;;;;9.70;8.50;;;;;;;;;;1681684;84;20923;-72
2022/08/14 11:08:15;;;;;;;9.05;8.13;;;;;;;;;;1688578;82;21167;-70
2022/08/14 11:10:44;;;;;;;;;;;;;;;;;;1682141;84;22462;-70
2022/08/14 11:13:18;;;;;;;12.70;8.68;;;;;;;;;;1682603;83;20124;-74
2022/08/14 11:15:45;;;;;;;12.60;9.15;;;;;;;;;;1672756;84;21779;-71
2022/08/14 11:18:12;;;;;;;10.23;8.15;;;;;;;;;;1667467;84;20973;-70
2022/08/14 11:20:39;;;;;;;11.33;8.43;;;;;;;;;;1677561;83;20980;-71
2022/08/14 11:23:06;;;;;;;13.78;8.13;;;;;;;;;;1675932;85;20894;-70
2022/08/14 11:25:36;;;;;;;14.53;8.65;;;;;;;;;;1684536;85;20882;-71
2022/08/14 11:28:04;;;;;;;11.12;8.83;;;;;;;;;;1685381;85;21416;-70
2022/08/14 11:30:31;;;;;;;15.00;9.15;;;;;;;;;;1688412;84;20941;-72
2022/08/14 11:32:57;;;;;;;10.87;9.00;;;;;;;;;;1688645;83;21537;-70
2022/08/14 11:35:25;;;;;;;13.58;9.25;;;;;;;;;;1685086;85;20909;-71
2022/08/14 11:37:54;;;;;;;12.47;8.93;;;;;;;;;;1686474;85;20857;-74
2022/08/14 11:40:22;;;;;;;9.15;8.25;;;;;;;;;;1695943;84;21621;-72
2022/08/14 11:42:51;;;;;;;12.95;9.33;;;;;;;;;;1695468;84;20853;-70
2022/08/14 11:45:18;;;;;;;8.85;8.03;;;;;;;;;;1693931;84;21517;-70
2022/08/14 11:47:45;;;;;;;10.88;9.08;;;;;;;;;;1685164;84;21003;-69
2022/08/14 11:50:22;;;;;;;11.20;8.95;;;;;;;;;;1693730;84;21404;-70
2022/08/14 11:52:48;;;;;;;9.73;8.73;;;;;;;;;;1685134;85;21925;-73
2022/08/14 11:55:15;;;;;;;11.43;8.30;;;;;;;;;;1686081;85;20937;-70
2022/08/14 11:57:43;;;;;;;10.32;8.03;;;;;;;;;;1685081;84;21020;-71
2022/08/14 12:00:11;;;;;;;14.93;9.23;;;;;;;;;;1685857;84;21518;-73
2022/08/14 12:02:53;;;;;;;11.03;9.90;;;;;;;;;;1698635;84;20889;-71
2022/08/14 12:05:33;;;;;;;10.63;8.90;;;;;;;;;;1696152;84;21147;-74
2022/08/14 12:08:01;;;;;;;10.32;8.28;;;;;;;;;;1691008;84;20941;-71
2022/08/14 12:10:33;;;;;;;11.12;9.08;;;;;;;;;;1669930;84;21422;-71
2022/08/14 12:12:56;;;;;;;10.75;8.48;;;;;;;;;;1694673;84;21584;-70
2022/08/14 12:15:32;;;;;;;9.67;8.47;;;;;;;;;;1686259;85;20918;-69
2022/08/14 12:17:59;;;;;;;10.82;8.60;;;;;;;;;;1683960;85;21171;-71
2022/08/14 12:20:33;;;;;;;12.20;8.60;;;;;;;;;;1685348;84;20986;-70
2022/08/14 12:23:01;;;;;;;9.35;8.38;;;;;;;;;;1686515;84;21506;-72
2022/08/14 12:25:28;;;;;;;10.48;8.35;;;;;;;;;;1683633;84;21083;-72
2022/08/14 12:27:56;;;;;;;12.40;8.23;;;;;;;;;;1674904;84;20995;-71
2022/08/14 12:30:37;;;;;;;;;;;;;;;;;;1695307;84;21260;-74
2022/08/14 12:33:04;;;;;;;9.18;8.03;;;;;;;;;;1675290;84;20134;-71
2022/08/14 12:35:39;;;;;;;8.95;7.90;;;;;;;;;;1670763;84;20859;-72
2022/08/14 12:38:06;;;;;;;10.18;8.20;;;;;;;;;;1684430;84;21623;-72
2022/08/14 12:40:33;;;;;;;9.50;8.48;;;;;;;;;;1674389;84;20931;-73
2022/08/14 12:43:02;;;;;;;11.20;8.10;;;;;;;;;;1684630;83;21206;-74
2022/08/14 12:45:34;;;;;;;8.70;7.80;;;;;;;;;;1673982;84;21480;-72
2022/08/14 12:48:03;;;;;;;8.75;7.85;;;;;;;;;;1676697;84;21393;-75
2022/08/14 12:50:38;;;;;;;12.70;8.35;;;;;;;;;;1684597;84;21057;-71
2022/08/14 12:53:06;;;;;;;11.45;8.28;;;;;;;;;;1686967;84;20882;-72
2022/08/14 12:55:35;;;;;;;10.88;8.83;;;;;;;;;;1682945;84;21237;-74
2022/08/14 12:58:07;;;;;;;8.98;8.08;;;;;;;;;;1679374;84;21424;-73
2022/08/14 13:00:35;;;;;;;9.20;8.15;;;;;;;;;;1673540;84;21449;-71
2022/08/14 13:03:03;;;;;;;11.95;8.53;;;;;;;;;;1679901;84;21001;-71
2022/08/14 13:05:31;;;;;;;12.25;7.33;;;;;;;;;;1679531;84;20990;-73
2022/08/14 13:07:59;;;;;;;9.18;7.78;;;;;;;;;;1674546;84;21291;-71
2022/08/14 13:10:25;;;;;;;10.05;7.85;;;;;;;;;;1682842;84;20965;-72
2022/08/14 13:12:56;;;;;;;9.25;7.97;;;;;;;;;;1672405;84;20995;-72
2022/08/14 13:15:23;;;;;;;11.03;8.08;;;;;;;;;;1672427;84;21012;-73
2022/08/14 13:17:51;;;;;;;11.57;8.70;;;;;;;;;;1691771;84;21483;-73
2022/08/14 13:20:20;;;;;;;13.22;7.90;;;;;;;;;;1690963;84;21215;-70
2022/08/14 13:22:46;;;;;;;8.68;7.83;;;;;;;;;;1696901;84;20976;-74
2022/08/14 13:25:14;;;;;;;13.83;8.15;;;;;;;;;;1684166;85;20917;-71
2022/08/14 13:27:43;;;;;;;10.13;7.28;;;;;;;;;;1685995;83;20905;-70
2022/08/14 13:30:11;;;;;;;16.62;7.37;;;;;;;;;;1684947;84;21534;-76
2022/08/14 13:32:39;;;;;;;12.93;7.53;;;;;;;;;;1686192;85;21137;-71
2022/08/14 13:35:07;;;;;;;7.37;6.60;;;;;;;;;;1684760;85;20925;-71
2022/08/14 13:37:34;;;;;;;10.65;7.22;;;;;;;;;;1688466;84;21431;-73
2022/08/14 13:40:00;;;;;;;10.65;7.30;;;;;;;;;;1694941;84;20928;-72
2022/08/14 13:42:27;;;;;;;10.90;7.70;;;;;;;;;;1696628;84;20951;-71
2022/08/14 13:44:55;;;;;;;8.90;7.10;;;;;;;;;;1693008;84;21272;-72
2022/08/14 13:47:23;;;;;;;11.22;7.05;;;;;;;;;;1693001;84;21020;-71
2022/08/14 13:49:50;;;;;;;12.05;6.90;;;;;;;;;;1698272;84;20921;-72
2022/08/14 13:52:19;;;;;;;11.25;6.97;;;;;;;;;;1691432;83;21519;-70
2022/08/14 13:54:47;;;;;;;11.45;6.90;;;;;;;;;;1694705;84;20876;-71
2022/08/14 13:57:16;;;;;;;10.78;7.45;;;;;;;;;;1691608;84;21239;-72
2022/08/14 13:59:45;;;;;;;8.58;6.65;;;;;;;;;;1691556;83;20926;-70
2022/08/14 14:02:11;;;;;;;15.70;8.13;;;;;;;;;;1695854;84;20861;-72
2022/08/14 14:04:40;;;;;;;11.70;7.78;;;;;;;;;;1684811;84;20929;-71
2022/08/14 14:07:13;;;;;;;11.18;7.00;;;;;;;;;;1684993;84;20988;-72
2022/08/14 14:09:42;;;;;;;12.55;7.62;;;;;;;;;;1695582;84;21124;-73
2022/08/14 14:12:09;;;;;;;8.70;6.97;;;;;;;;;;1696254;84;21031;-72
2022/08/14 14:14:36;;;;;;;10.93;6.92;;;;;;;;;;1691905;84;20965;-74
2022/08/14 14:17:04;;;;;;;8.30;7.27;;;;;;;;;;1695209;84;21008;-74
2022/08/14 14:19:34;;;;;;;11.78;7.40;;;;;;;;;;1695654;83;20913;-72
2022/08/14 14:22:01;;;;;;;10.15;6.78;;;;;;;;;;1687264;84;21261;-73
2022/08/14 14:24:28;;;;;;;;;;;;;;;;;;1675450;84;20919;-71
2022/08/14 14:26:58;;;;;;;9.55;6.90;;;;;;;;;;1679740;84;20120;-71
2022/08/14 14:29:24;;;;;;;17.32;7.42;;;;;;;;;;1683266;84;21030;-72
2022/08/14 14:31:51;;;;;;;12.73;7.33;;;;;;;;;;1683851;83;21480;-72
2022/08/14 14:34:17;;;;;;;9.45;6.00;;;;;;;;;;1688196;84;21156;-70
2022/08/14 14:36:43;;;;;;;11.60;6.45;;;;;;;;;;1678276;85;20898;-71
2022/08/14 14:39:10;;;;;;;9.35;6.97;;;;;;;;;;1683271;83;21007;-74
2022/08/14 14:41:38;;;;;;;12.37;6.77;;;;;;;;;;1690239;84;21040;-71
2022/08/14 14:44:05;;;;;;;;;;;;;;;;;;1692580;84;20858;-70
2022/08/14 14:46:35;;;;;;;15.50;6.58;;;;;;;;;;1671607;83;20583;-74
2022/08/14 14:49:03;;;;;;;10.82;6.78;;;;;;;;;;1679670;83;20891;-73
2022/08/14 14:51:30;;;;;;;8.25;6.50;;;;;;;;;;1681278;84;20982;-72
2022/08/14 14:53:56;;;;;;;16.97;7.47;;;;;;;;;;1695481;83;20989;-74